sensor_id;sensor_type;location;lat;lon;timestamp;pressure;altitude;pressure_sealevel;temperature;humidity
17607;BME280;69222;52.242;20.980;2023-07-29T00:00:26;99571.56;;;18.06;84.71
17607;BME280;69222;52.242;20.980;2023-07-29T00:02:54;99566.34;;;18.06;84.65
17607;BME280;69222;52.242;20.980;2023-07-29T00:05:22;99568.94;;;18.06;84.41
17607;BME280;69222;52.242;20.980;2023-07-29T00:07:50;99580.22;;;18.06;84.78
17607;BME280;69222;52.242;20.980;2023-07-29T00:10:18;99576.75;;;18.06;84.73
17607;BME280;69222;52.242;20.980;2023-07-29T00:12:46;99581.19;;;18.04;84.66
17607;BME280;69222;52.242;20.980;2023-07-29T00:15:14;99582.13;;;18.03;84.59
17607;BME280;69222;52.242;20.980;2023-07-29T00:17:44;99582.50;;;17.95;84.94
17607;BME280;69222;52.242;20.980;2023-07-29T00:20:12;99584.41;;;17.92;85.05
17607;BME280;69222;52.242;20.980;2023-07-29T00:22:40;99585.25;;;17.92;85.46
17607;BME280;69222;52.242;20.980;2023-07-29T00:25:08;99594.00;;;17.91;85.42
17607;BME280;69222;52.242;20.980;2023-07-29T00:27:36;99592.31;;;17.90;85.78
17607;BME280;69222;52.242;20.980;2023-07-29T00:30:05;99598.44;;;17.89;85.65
17607;BME280;69222;52.242;20.980;2023-07-29T00:32:33;99592.38;;;17.89;85.83
17607;BME280;69222;52.242;20.980;2023-07-29T00:35:03;99591.50;;;17.90;85.74
17607;BME280;69222;52.242;20.980;2023-07-29T00:37:31;99595.91;;;17.88;85.64
17607;BME280;69222;52.242;20.980;2023-07-29T00:39:59;99601.22;;;17.86;85.64
17607;BME280;69222;52.242;20.980;2023-07-29T00:42:27;99599.38;;;17.88;85.63
17607;BME280;69222;52.242;20.980;2023-07-29T00:44:55;99600.34;;;17.85;85.46
17607;BME280;69222;52.242;20.980;2023-07-29T00:47:24;99604.66;;;17.86;85.67
17607;BME280;69222;52.242;20.980;2023-07-29T00:49:53;99600.19;;;17.89;85.91
17607;BME280;69222;52.242;20.980;2023-07-29T00:52:22;99596.00;;;17.86;85.59
17607;BME280;69222;52.242;20.980;2023-07-29T00:54:50;99603.19;;;17.81;85.78
17607;BME280;69222;52.242;20.980;2023-07-29T00:57:19;99605.88;;;17.79;86.01
17607;BME280;69222;52.242;20.980;2023-07-29T00:59:47;99611.94;;;17.80;86.09
17607;BME280;69222;52.242;20.980;2023-07-29T01:02:15;99611.09;;;17.79;85.90
17607;BME280;69222;52.242;20.980;2023-07-29T01:04:44;99610.25;;;17.79;85.92
17607;BME280;69222;52.242;20.980;2023-07-29T01:07:16;99612.06;;;17.77;85.96
17607;BME280;69222;52.242;20.980;2023-07-29T01:09:55;99612.78;;;17.80;85.99
17607;BME280;69222;52.242;20.980;2023-07-29T01:12:36;99610.59;;;17.71;85.64
17607;BME280;69222;52.242;20.980;2023-07-29T01:15:11;99610.72;;;17.68;85.77
17607;BME280;69222;52.242;20.980;2023-07-29T01:17:48;99609.88;;;17.68;85.68
17607;BME280;69222;52.242;20.980;2023-07-29T01:20:17;99605.78;;;17.62;85.24
17607;BME280;69222;52.242;20.980;2023-07-29T01:22:48;99612.16;;;17.56;85.45
17607;BME280;69222;52.242;20.980;2023-07-29T01:25:17;99621.88;;;17.53;85.92
17607;BME280;69222;52.242;20.980;2023-07-29T01:27:47;99622.78;;;17.52;85.71
17607;BME280;69222;52.242;20.980;2023-07-29T01:30:18;99622.78;;;17.52;85.80
17607;BME280;69222;52.242;20.980;2023-07-29T01:32:53;99622.78;;;17.52;85.89
17607;BME280;69222;52.242;20.980;2023-07-29T01:35:25;99630.59;;;17.52;85.68
17607;BME280;69222;52.242;20.980;2023-07-29T01:37:56;99623.00;;;17.47;85.20
17607;BME280;69222;52.242;20.980;2023-07-29T01:40:28;99630.94;;;17.44;85.67
17607;BME280;69222;52.242;20.980;2023-07-29T01:42:56;99627.50;;;17.44;85.38
17607;BME280;69222;52.242;20.980;2023-07-29T01:45:25;99633.78;;;17.39;85.16
17607;BME280;69222;52.242;20.980;2023-07-29T01:47:53;99636.38;;;17.39;85.23
17607;BME280;69222;52.242;20.980;2023-07-29T01:50:21;99633.16;;;17.34;85.21
17607;BME280;69222;52.242;20.980;2023-07-29T01:52:49;99635.91;;;17.31;85.20
17607;BME280;69222;52.242;20.980;2023-07-29T01:55:17;99634.25;;;17.29;85.27
17607;BME280;69222;52.242;20.980;2023-07-29T01:57:48;99629.28;;;17.24;85.53
17607;BME280;69222;52.242;20.980;2023-07-29T02:00:21;99642.34;;;17.23;85.44
17607;BME280;69222;52.242;20.980;2023-07-29T02:02:49;99645.94;;;17.20;85.26
17607;BME280;69222;52.242;20.980;2023-07-29T02:05:20;99639.31;;;17.13;85.11
17607;BME280;69222;52.242;20.980;2023-07-29T02:07:52;99639.59;;;17.07;85.10
17607;BME280;69222;52.242;20.980;2023-07-29T02:10:23;99648.25;;;17.07;85.43
17607;BME280;69222;52.242;20.980;2023-07-29T02:12:52;99654.25;;;17.09;85.57
17607;BME280;69222;52.242;20.980;2023-07-29T02:15:22;99656.84;;;17.09;85.62
17607;BME280;69222;52.242;20.980;2023-07-29T02:17:51;99653.44;;;17.07;85.36
17607;BME280;69222;52.242;20.980;2023-07-29T02:20:19;99656.13;;;17.06;85.44
17607;BME280;69222;52.242;20.980;2023-07-29T02:22:47;99659.72;;;17.03;85.30
17607;BME280;69222;52.242;20.980;2023-07-29T02:25:15;99668.50;;;17.01;85.92
17607;BME280;69222;52.242;20.980;2023-07-29T02:27:43;99671.16;;;16.99;85.62
17607;BME280;69222;52.242;20.980;2023-07-29T02:30:13;99661.69;;;16.98;85.71
17607;BME280;69222;52.242;20.980;2023-07-29T02:32:41;99660.97;;;16.95;85.69
17607;BME280;69222;52.242;20.980;2023-07-29T02:35:09;99662.72;;;16.94;85.45
17607;BME280;69222;52.242;20.980;2023-07-29T02:37:37;99666.38;;;16.90;85.74
17607;BME280;69222;52.242;20.980;2023-07-29T02:40:06;99667.22;;;16.90;86.09
17607;BME280;69222;52.242;20.980;2023-07-29T02:42:35;99659.41;;;16.90;85.98
17607;BME280;69222;52.242;20.980;2023-07-29T02:45:04;99662.91;;;16.89;85.69
17607;BME280;69222;52.242;20.980;2023-07-29T02:47:37;99669.03;;;16.88;86.02
17607;BME280;69222;52.242;20.980;2023-07-29T02:50:06;99668.06;;;16.91;86.09
17607;BME280;69222;52.242;20.980;2023-07-29T02:52:34;99660.25;;;16.91;85.66
17607;BME280;69222;52.242;20.980;2023-07-29T02:55:02;99669.88;;;16.89;85.56
17607;BME280;69222;52.242;20.980;2023-07-29T02:57:30;99670.72;;;16.89;85.63
17607;BME280;69222;52.242;20.980;2023-07-29T02:59:58;99676.84;;;16.88;85.60
17607;BME280;69222;52.242;20.980;2023-07-29T03:02:26;99685.50;;;16.89;85.63
17607;BME280;69222;52.242;20.980;2023-07-29T03:04:56;99682.13;;;16.87;85.56
17607;BME280;69222;52.242;20.980;2023-07-29T03:07:24;99685.56;;;16.87;85.73
17607;BME280;69222;52.242;20.980;2023-07-29T03:09:52;99688.16;;;16.87;85.74
17607;BME280;69222;52.242;20.980;2023-07-29T03:12:20;99684.66;;;16.88;85.59
17607;BME280;69222;52.242;20.980;2023-07-29T03:14:48;99685.63;;;16.86;85.44
17607;BME280;69222;52.242;20.980;2023-07-29T03:17:16;99692.47;;;16.88;85.42
17607;BME280;69222;52.242;20.980;2023-07-29T03:19:44;99691.69;;;16.86;85.25
17607;BME280;69222;52.242;20.980;2023-07-29T03:22:13;99692.53;;;16.87;84.96
17607;BME280;69222;52.242;20.980;2023-07-29T03:24:41;99691.81;;;16.83;85.12
17607;BME280;69222;52.242;20.980;2023-07-29T03:27:09;99686.75;;;16.80;85.31
17607;BME280;69222;52.242;20.980;2023-07-29T03:29:37;99692.72;;;16.82;85.33
17607;BME280;69222;52.242;20.980;2023-07-29T03:32:06;99695.31;;;16.82;85.35
17607;BME280;69222;52.242;20.980;2023-07-29T03:34:34;99695.13;;;16.87;85.51
17607;BME280;69222;52.242;20.980;2023-07-29T03:37:02;99695.13;;;16.87;85.24
17607;BME280;69222;52.242;20.980;2023-07-29T03:39:31;99699.28;;;16.91;85.27
17607;BME280;69222;52.242;20.980;2023-07-29T03:41:59;99699.09;;;16.96;85.25
17607;BME280;69222;52.242;20.980;2023-07-29T03:44:27;99701.69;;;16.96;84.68
17607;BME280;69222;52.242;20.980;2023-07-29T03:46:55;99704.28;;;16.96;85.16
17607;BME280;69222;52.242;20.980;2023-07-29T03:49:23;99706.91;;;16.96;85.10
17607;BME280;69222;52.242;20.980;2023-07-29T03:51:51;99710.13;;;17.01;85.23
17607;BME280;69222;52.242;20.980;2023-07-29T03:54:19;99710.13;;;17.01;84.91
17607;BME280;69222;52.242;20.980;2023-07-29T03:56:48;99705.59;;;17.06;84.48
17607;BME280;69222;52.242;20.980;2023-07-29T03:59:17;99714.13;;;17.09;83.87
17607;BME280;69222;52.242;20.980;2023-07-29T04:01:45;99722.75;;;17.10;84.01
17607;BME280;69222;52.242;20.980;2023-07-29T04:04:13;99711.31;;;17.14;84.19
17607;BME280;69222;52.242;20.980;2023-07-29T04:06:40;99712.72;;;17.21;84.13
17607;BME280;69222;52.242;20.980;2023-07-29T04:09:08;99713.94;;;17.33;83.93
17607;BME280;69222;52.242;20.980;2023-07-29T04:11:36;99708.38;;;17.41;83.26
17607;BME280;69222;52.242;20.980;2023-07-29T04:14:06;99716.75;;;17.47;82.58
17607;BME280;69222;52.242;20.980;2023-07-29T04:16:34;99718.25;;;17.53;82.43
17607;BME280;69222;52.242;20.980;2023-07-29T04:19:03;99719.69;;;17.60;81.99
17607;BME280;69222;52.242;20.980;2023-07-29T04:21:32;99723.03;;;17.62;81.52
17607;BME280;69222;52.242;20.980;2023-07-29T04:24:00;99720.03;;;17.71;81.69
17607;BME280;69222;52.242;20.980;2023-07-29T04:26:29;99735.19;;;17.82;81.35
17607;BME280;69222;52.242;20.980;2023-07-29T04:29:00;99727.72;;;17.93;80.85
17607;BME280;69222;52.242;20.980;2023-07-29T04:31:29;99733.19;;;18.06;80.30
17607;BME280;69222;52.242;20.980;2023-07-29T04:33:57;99736.13;;;18.17;79.89
17607;BME280;69222;52.242;20.980;2023-07-29T04:36:25;99737.53;;;18.24;78.88
17607;BME280;69222;52.242;20.980;2023-07-29T04:38:53;99749.50;;;18.28;78.36
17607;BME280;69222;52.242;20.980;2023-07-29T04:41:21;99747.75;;;18.29;77.74
17607;BME280;69222;52.242;20.980;2023-07-29T04:43:49;99750.44;;;18.27;78.55
17607;BME280;69222;52.242;20.980;2023-07-29T04:46:17;99753.66;;;18.32;78.26
17607;BME280;69222;52.242;20.980;2023-07-29T04:48:46;99751.31;;;18.45;78.16
17607;BME280;69222;52.242;20.980;2023-07-29T04:51:14;99757.69;;;18.57;77.67
17607;BME280;69222;52.242;20.980;2023-07-29T04:53:42;99757.81;;;18.73;76.37
17607;BME280;69222;52.242;20.980;2023-07-29T04:56:10;99759.78;;;18.85;75.95
17607;BME280;69222;52.242;20.980;2023-07-29T04:58:38;99759.44;;;18.93;75.95
17607;BME280;69222;52.242;20.980;2023-07-29T05:01:06;99762.09;;;19.09;75.60
17607;BME280;69222;52.242;20.980;2023-07-29T05:03:34;99762.28;;;19.21;74.51
17607;BME280;69222;52.242;20.980;2023-07-29T05:06:03;99776.53;;;19.16;73.64
17607;BME280;69222;52.242;20.980;2023-07-29T05:08:31;99777.38;;;18.99;73.83
17607;BME280;69222;52.242;20.980;2023-07-29T05:10:59;99777.72;;;18.93;74.54
17607;BME280;69222;52.242;20.980;2023-07-29T05:13:27;99778.59;;;18.92;74.48
17607;BME280;69222;52.242;20.980;2023-07-29T05:15:55;99779.84;;;18.85;74.50
17607;BME280;69222;52.242;20.980;2023-07-29T05:18:23;99777.22;;;18.85;74.76
17607;BME280;69222;52.242;20.980;2023-07-29T05:20:51;99782.38;;;18.86;74.98
17607;BME280;69222;52.242;20.980;2023-07-29T05:23:21;99780.63;;;18.87;74.55
17607;BME280;69222;52.242;20.980;2023-07-29T05:25:49;99776.38;;;18.84;74.34
17607;BME280;69222;52.242;20.980;2023-07-29T05:28:17;99776.47;;;18.82;74.91
17607;BME280;69222;52.242;20.980;2023-07-29T05:30:44;99777.41;;;18.81;74.53
17607;BME280;69222;52.242;20.980;2023-07-29T05:33:12;99783.63;;;18.96;75.04
17607;BME280;69222;52.242;20.980;2023-07-29T05:35:41;99780.28;;;19.10;73.98
17607;BME280;69222;52.242;20.980;2023-07-29T05:38:09;99770.22;;;19.20;73.61
17607;BME280;69222;52.242;20.980;2023-07-29T05:40:38;99774.81;;;19.32;72.85
17607;BME280;69222;52.242;20.980;2023-07-29T05:43:06;99777.00;;;19.40;72.20
17607;BME280;69222;52.242;20.980;2023-07-29T05:45:34;99775.34;;;19.39;71.83
17607;BME280;69222;52.242;20.980;2023-07-29T05:48:03;99766.22;;;19.30;71.29
17607;BME280;69222;52.242;20.980;2023-07-29T05:50:31;99770.91;;;19.23;72.50
17607;BME280;69222;52.242;20.980;2023-07-29T05:52:58;99776.28;;;19.38;72.74
17607;BME280;69222;52.242;20.980;2023-07-29T05:55:26;99780.22;;;19.62;71.65
17607;BME280;69222;52.242;20.980;2023-07-29T05:57:56;99784.91;;;19.89;71.03
17607;BME280;69222;52.242;20.980;2023-07-29T06:00:24;99789.63;;;20.30;69.93
17607;BME280;69222;52.242;20.980;2023-07-29T06:02:52;99788.16;;;21.02;68.58
17607;BME280;69222;52.242;20.980;2023-07-29T06:05:21;99780.75;;;23.17;66.00
17607;BME280;69222;52.242;20.980;2023-07-29T06:07:49;99782.03;;;25.64;54.14
17607;BME280;69222;52.242;20.980;2023-07-29T06:10:17;99778.84;;;26.90;49.82
17607;BME280;69222;52.242;20.980;2023-07-29T06:12:46;99782.69;;;29.17;44.11
17607;BME280;69222;52.242;20.980;2023-07-29T06:15:15;99788.25;;;31.49;38.33
17607;BME280;69222;52.242;20.980;2023-07-29T06:17:43;99783.38;;;33.44;33.51
17607;BME280;69222;52.242;20.980;2023-07-29T06:20:11;99786.38;;;34.74;30.91
17607;BME280;69222;52.242;20.980;2023-07-29T06:22:39;99781.94;;;35.78;29.00
17607;BME280;69222;52.242;20.980;2023-07-29T06:25:07;99783.38;;;36.68;27.72
17607;BME280;69222;52.242;20.980;2023-07-29T06:27:35;99791.28;;;37.32;26.87
17607;BME280;69222;52.242;20.980;2023-07-29T06:30:04;99786.31;;;38.12;25.13
17607;BME280;69222;52.242;20.980;2023-07-29T06:32:34;99788.91;;;38.86;24.22
17607;BME280;69222;52.242;20.980;2023-07-29T06:35:02;99796.22;;;39.64;22.94
17607;BME280;69222;52.242;20.980;2023-07-29T06:37:30;99798.19;;;39.24;23.19
17607;BME280;69222;52.242;20.980;2023-07-29T06:39:59;99800.06;;;38.57;23.94
17607;BME280;69222;52.242;20.980;2023-07-29T06:42:27;99809.59;;;38.53;24.21
17607;BME280;69222;52.242;20.980;2023-07-29T06:44:55;99813.13;;;39.06;23.43
17607;BME280;69222;52.242;20.980;2023-07-29T06:47:23;99809.41;;;39.27;22.59
17607;BME280;69222;52.242;20.980;2023-07-29T06:49:53;99808.66;;;38.12;23.67
17607;BME280;69222;52.242;20.980;2023-07-29T06:52:21;99808.81;;;37.98;24.30
17607;BME280;69222;52.242;20.980;2023-07-29T06:54:49;99798.41;;;38.42;23.92
17607;BME280;69222;52.242;20.980;2023-07-29T06:57:17;99795.09;;;39.07;23.21
17607;BME280;69222;52.242;20.980;2023-07-29T06:59:45;99797.06;;;39.65;22.48
17607;BME280;69222;52.242;20.980;2023-07-29T07:02:14;99796.22;;;39.77;21.92
17607;BME280;69222;52.242;20.980;2023-07-29T07:04:41;99798.78;;;39.52;22.36
17607;BME280;69222;52.242;20.980;2023-07-29T07:07:11;99802.06;;;39.61;21.90
17607;BME280;69222;52.242;20.980;2023-07-29T07:09:39;99801.09;;;40.00;21.84
17607;BME280;69222;52.242;20.980;2023-07-29T07:12:07;99806.13;;;39.83;21.49
17607;BME280;69222;52.242;20.980;2023-07-29T07:14:36;99804.19;;;38.39;23.59
17607;BME280;69222;52.242;20.980;2023-07-29T07:17:05;99800.94;;;37.89;23.15
17607;BME280;69222;52.242;20.980;2023-07-29T07:19:34;99795.81;;;38.14;23.16
17607;BME280;69222;52.242;20.980;2023-07-29T07:22:02;99800.88;;;38.37;23.30
17607;BME280;69222;52.242;20.980;2023-07-29T07:24:32;99795.91;;;39.21;22.46
17607;BME280;69222;52.242;20.980;2023-07-29T07:27:00;99792.72;;;40.08;21.06
17607;BME280;69222;52.242;20.980;2023-07-29T07:29:28;99794.44;;;41.16;19.69
17607;BME280;69222;52.242;20.980;2023-07-29T07:31:58;99793.84;;;42.06;18.65
17607;BME280;69222;52.242;20.980;2023-07-29T07:34:27;99791.06;;;42.25;18.83
17607;BME280;69222;52.242;20.980;2023-07-29T07:36:55;99779.91;;;42.98;17.65
17607;BME280;69222;52.242;20.980;2023-07-29T07:39:23;99781.06;;;43.49;17.58
17607;BME280;69222;52.242;20.980;2023-07-29T07:41:52;99782.69;;;43.50;17.27
17607;BME280;69222;52.242;20.980;2023-07-29T07:44:20;99782.91;;;43.49;17.02
17607;BME280;69222;52.242;20.980;2023-07-29T07:46:48;99783.63;;;43.44;16.79
17607;BME280;69222;52.242;20.980;2023-07-29T07:49:16;99780.59;;;43.29;16.83
17607;BME280;69222;52.242;20.980;2023-07-29T07:51:44;99789.66;;;43.23;17.30
17607;BME280;69222;52.242;20.980;2023-07-29T07:54:12;99788.41;;;43.13;17.21
17607;BME280;69222;52.242;20.980;2023-07-29T07:56:40;99795.69;;;43.01;17.33
17607;BME280;69222;52.242;20.980;2023-07-29T07:59:09;99791.44;;;42.70;17.75
17607;BME280;69222;52.242;20.980;2023-07-29T08:01:39;99782.47;;;41.06;19.21
17607;BME280;69222;52.242;20.980;2023-07-29T08:04:07;99785.97;;;38.35;21.94
17607;BME280;69222;52.242;20.980;2023-07-29T08:06:35;99794.28;;;35.72;25.29
17607;BME280;69222;52.242;20.980;2023-07-29T08:09:03;99795.41;;;33.87;27.85
17607;BME280;69222;52.242;20.980;2023-07-29T08:11:31;99791.63;;;33.18;30.19
17607;BME280;69222;52.242;20.980;2023-07-29T08:13:59;99790.63;;;34.37;28.53
17607;BME280;69222;52.242;20.980;2023-07-29T08:16:29;99787.13;;;35.79;25.86
17607;BME280;69222;52.242;20.980;2023-07-29T08:18:57;99781.75;;;36.73;24.40
17607;BME280;69222;52.242;20.980;2023-07-29T08:21:26;99783.75;;;36.65;24.33
17607;BME280;69222;52.242;20.980;2023-07-29T08:23:54;99780.47;;;35.61;25.10
17607;BME280;69222;52.242;20.980;2023-07-29T08:26:22;99789.06;;;33.88;27.04
17607;BME280;69222;52.242;20.980;2023-07-29T08:28:50;99788.22;;;32.34;30.12
17607;BME280;69222;52.242;20.980;2023-07-29T08:31:20;99783.50;;;31.35;31.83
17607;BME280;69222;52.242;20.980;2023-07-29T08:33:50;99788.53;;;30.41;32.33
17607;BME280;69222;52.242;20.980;2023-07-29T08:36:18;99787.47;;;29.51;34.31
17607;BME280;69222;52.242;20.980;2023-07-29T08:38:46;99785.66;;;28.65;35.94
17607;BME280;69222;52.242;20.980;2023-07-29T08:41:16;99781.81;;;28.10;36.86
17607;BME280;69222;52.242;20.980;2023-07-29T08:43:49;99784.91;;;27.75;38.12
17607;BME280;69222;52.242;20.980;2023-07-29T08:46:19;99780.75;;;27.51;39.00
17607;BME280;69222;52.242;20.980;2023-07-29T08:48:47;99787.16;;;27.18;39.31
17607;BME280;69222;52.242;20.980;2023-07-29T08:51:18;99785.66;;;26.72;39.58
17607;BME280;69222;52.242;20.980;2023-07-29T08:53:47;99787.44;;;26.39;40.46
17607;BME280;69222;52.242;20.980;2023-07-29T08:56:16;99789.72;;;26.00;40.95
17607;BME280;69222;52.242;20.980;2023-07-29T08:58:44;99796.44;;;26.05;41.36
17607;BME280;69222;52.242;20.980;2023-07-29T09:01:13;99786.22;;;26.11;41.27
17607;BME280;69222;52.242;20.980;2023-07-29T09:03:42;99792.38;;;25.89;41.67
17607;BME280;69222;52.242;20.980;2023-07-29T09:06:13;99789.81;;;25.76;42.02
17607;BME280;69222;52.242;20.980;2023-07-29T09:08:44;99787.31;;;25.75;42.30
17607;BME280;69222;52.242;20.980;2023-07-29T09:11:13;99790.56;;;25.90;42.08
17607;BME280;69222;52.242;20.980;2023-07-29T09:13:43;99785.97;;;26.14;42.04
17607;BME280;69222;52.242;20.980;2023-07-29T09:16:12;99783.31;;;26.25;41.18
17607;BME280;69222;52.242;20.980;2023-07-29T09:18:41;99788.03;;;26.43;40.92
17607;BME280;69222;52.242;20.980;2023-07-29T09:21:09;99783.31;;;26.58;40.51
17607;BME280;69222;52.242;20.980;2023-07-29T09:23:40;99782.00;;;26.63;39.74
17607;BME280;69222;52.242;20.980;2023-07-29T09:26:10;99779.16;;;26.76;39.44
17607;BME280;69222;52.242;20.980;2023-07-29T09:28:40;99776.59;;;26.86;38.83
17607;BME280;69222;52.242;20.980;2023-07-29T09:31:18;99781.63;;;26.89;38.96
17607;BME280;69222;52.242;20.980;2023-07-29T09:33:48;99773.25;;;27.05;38.70
17607;BME280;69222;52.242;20.980;2023-07-29T09:36:16;99770.34;;;27.29;38.21
17607;BME280;69222;52.242;20.980;2023-07-29T09:38:46;99771.00;;;27.52;37.98
17607;BME280;69222;52.242;20.980;2023-07-29T09:41:16;99770.69;;;28.35;38.00
17607;BME280;69222;52.242;20.980;2023-07-29T09:43:44;99765.97;;;28.87;36.01
17607;BME280;69222;52.242;20.980;2023-07-29T09:46:13;99770.31;;;28.98;35.49
17607;BME280;69222;52.242;20.980;2023-07-29T09:48:41;99769.03;;;29.87;34.77
17607;BME280;69222;52.242;20.980;2023-07-29T09:51:13;99763.19;;;30.01;33.81
17607;BME280;69222;52.242;20.980;2023-07-29T09:53:42;99761.34;;;30.29;33.73
17607;BME280;69222;52.242;20.980;2023-07-29T09:56:13;99752.16;;;31.55;31.11
17607;BME280;69222;52.242;20.980;2023-07-29T09:58:44;99741.91;;;32.84;29.61
17607;BME280;69222;52.242;20.980;2023-07-29T10:01:13;99747.34;;;34.33;27.07
17607;BME280;69222;52.242;20.980;2023-07-29T10:03:42;99743.28;;;35.87;24.51
17607;BME280;69222;52.242;20.980;2023-07-29T10:06:12;99733.56;;;36.93;23.49
17607;BME280;69222;52.242;20.980;2023-07-29T10:08:42;99735.25;;;37.77;21.29
17607;BME280;69222;52.242;20.980;2023-07-29T10:11:11;99730.81;;;38.17;21.04
17607;BME280;69222;52.242;20.980;2023-07-29T10:13:39;99740.41;;;39.00;19.94
17607;BME280;69222;52.242;20.980;2023-07-29T10:16:14;99744.13;;;39.05;20.10
17607;BME280;69222;52.242;20.980;2023-07-29T10:18:43;99747.06;;;38.71;19.79
17607;BME280;69222;52.242;20.980;2023-07-29T10:21:11;99748.78;;;37.90;20.40
17607;BME280;69222;52.242;20.980;2023-07-29T10:23:43;99745.16;;;37.70;20.28
17607;BME280;69222;52.242;20.980;2023-07-29T10:26:16;99730.81;;;38.11;20.61
17607;BME280;69222;52.242;20.980;2023-07-29T10:28:48;99731.50;;;38.46;20.61
17607;BME280;69222;52.242;20.980;2023-07-29T10:31:22;99725.50;;;38.51;20.68
17607;BME280;69222;52.242;20.980;2023-07-29T10:33:53;99728.19;;;38.37;20.42
17607;BME280;69222;52.242;20.980;2023-07-29T10:36:22;99730.63;;;38.32;20.80
17607;BME280;69222;52.242;20.980;2023-07-29T10:38:51;99726.34;;;38.45;19.23
17607;BME280;69222;52.242;20.980;2023-07-29T10:41:19;99730.00;;;37.56;19.84
17607;BME280;69222;52.242;20.980;2023-07-29T10:43:48;99726.78;;;36.69;21.27
17607;BME280;69222;52.242;20.980;2023-07-29T10:46:19;99735.22;;;35.21;23.20
17607;BME280;69222;52.242;20.980;2023-07-29T10:48:54;99730.88;;;34.68;23.86
17607;BME280;69222;52.242;20.980;2023-07-29T10:51:23;99726.00;;;33.71;24.62
17607;BME280;69222;52.242;20.980;2023-07-29T10:53:53;99727.41;;;32.79;26.28
17607;BME280;69222;52.242;20.980;2023-07-29T10:56:26;99727.25;;;31.72;27.33
17607;BME280;69222;52.242;20.980;2023-07-29T10:59:22;99722.28;;;32.44;27.41
17607;BME280;69222;52.242;20.980;2023-07-29T11:01:51;99717.22;;;34.17;24.90
17607;BME280;69222;52.242;20.980;2023-07-29T11:04:25;99709.38;;;35.14;23.65
17607;BME280;69222;52.242;20.980;2023-07-29T11:07:22;99705.38;;;35.90;22.84
17607;BME280;69222;52.242;20.980;2023-07-29T11:10:03;99703.09;;;36.51;22.39
17607;BME280;69222;52.242;20.980;2023-07-29T11:12:53;99709.22;;;36.95;21.95
17607;BME280;69222;52.242;20.980;2023-07-29T11:15:24;99714.38;;;37.31;21.35
17607;BME280;69222;52.242;20.980;2023-07-29T11:17:54;99702.00;;;37.37;20.97
17607;BME280;69222;52.242;20.980;2023-07-29T11:20:25;99694.00;;;36.52;21.95
17607;BME280;69222;52.242;20.980;2023-07-29T11:22:54;99694.25;;;35.93;22.86
17607;BME280;69222;52.242;20.980;2023-07-29T11:25:27;99683.53;;;35.57;23.78
17607;BME280;69222;52.242;20.980;2023-07-29T11:27:58;99684.72;;;36.06;23.50
17607;BME280;69222;52.242;20.980;2023-07-29T11:30:33;99672.66;;;36.66;22.79
17607;BME280;69222;52.242;20.980;2023-07-29T11:33:01;99669.47;;;36.84;22.16
17607;BME280;69222;52.242;20.980;2023-07-29T11:35:32;99674.28;;;36.67;22.93
17607;BME280;69222;52.242;20.980;2023-07-29T11:38:00;99669.19;;;36.72;22.51
17607;BME280;69222;52.242;20.980;2023-07-29T11:40:27;99669.28;;;36.57;21.90
17607;BME280;69222;52.242;20.980;2023-07-29T11:42:55;99656.84;;;35.85;23.17
17607;BME280;69222;52.242;20.980;2023-07-29T11:45:23;99653.16;;;34.76;24.76
17607;BME280;69222;52.242;20.980;2023-07-29T11:48:07;99664.75;;;33.22;26.46
17607;BME280;69222;52.242;20.980;2023-07-29T11:50:37;99661.25;;;32.41;27.65
17607;BME280;69222;52.242;20.980;2023-07-29T11:53:05;99662.56;;;31.96;28.30
17607;BME280;69222;52.242;20.980;2023-07-29T11:55:33;99653.84;;;31.78;28.84
17607;BME280;69222;52.242;20.980;2023-07-29T11:58:01;99659.94;;;31.62;29.08
17607;BME280;69222;52.242;20.980;2023-07-29T12:00:29;99655.66;;;31.27;29.46
17607;BME280;69222;52.242;20.980;2023-07-29T12:02:57;99652.66;;;30.96;30.86
17607;BME280;69222;52.242;20.980;2023-07-29T12:05:26;99649.66;;;30.65;30.59
17607;BME280;69222;52.242;20.980;2023-07-29T12:07:56;99639.16;;;30.19;31.81
17607;BME280;69222;52.242;20.980;2023-07-29T12:10:25;99634.22;;;29.71;32.62
17607;BME280;69222;52.242;20.980;2023-07-29T12:12:54;99630.13;;;29.58;33.50
17607;BME280;69222;52.242;20.980;2023-07-29T12:15:26;99633.72;;;29.57;34.10
17607;BME280;69222;52.242;20.980;2023-07-29T12:17:55;99640.16;;;29.55;33.00
17607;BME280;69222;52.242;20.980;2023-07-29T12:20:27;99632.13;;;29.47;33.38
17607;BME280;69222;52.242;20.980;2023-07-29T12:22:59;99624.53;;;29.52;33.52
17607;BME280;69222;52.242;20.980;2023-07-29T12:25:29;99623.69;;;29.51;33.29
17607;BME280;69222;52.242;20.980;2023-07-29T12:28:02;99620.44;;;29.40;33.23
17607;BME280;69222;52.242;20.980;2023-07-29T12:30:30;99621.00;;;29.33;33.67
17607;BME280;69222;52.242;20.980;2023-07-29T12:32:59;99619.19;;;29.34;33.65
17607;BME280;69222;52.242;20.980;2023-07-29T12:35:35;99616.81;;;29.31;34.40
17607;BME280;69222;52.242;20.980;2023-07-29T12:38:04;99613.78;;;29.26;34.02
17607;BME280;69222;52.242;20.980;2023-07-29T12:40:33;99614.38;;;29.20;33.76
17607;BME280;69222;52.242;20.980;2023-07-29T12:43:05;99607.22;;;28.93;34.36
17607;BME280;69222;52.242;20.980;2023-07-29T12:45:35;99617.03;;;28.82;34.43
17607;BME280;69222;52.242;20.980;2023-07-29T12:48:06;99619.03;;;28.61;34.97
17607;BME280;69222;52.242;20.980;2023-07-29T12:50:34;99613.50;;;28.45;35.44
17607;BME280;69222;52.242;20.980;2023-07-29T12:53:04;99610.03;;;28.44;35.82
17607;BME280;69222;52.242;20.980;2023-07-29T12:55:32;99610.47;;;28.39;35.54
17607;BME280;69222;52.242;20.980;2023-07-29T12:58:00;99617.28;;;28.32;35.45
17607;BME280;69222;52.242;20.980;2023-07-29T13:00:28;99600.69;;;28.40;35.87